sensor_id;sensor_type;location;lat;lon;timestamp;pressure;altitude;pressure_sealevel;temperature;humidity
55540;BME280;41384;51.418;7.286;2023-01-29T00:01:23;101191.56;;;-0.37;84.43
55540;BME280;41384;51.418;7.286;2023-01-29T00:03:50;101189.50;;;-0.32;83.84
55540;BME280;41384;51.418;7.286;2023-01-29T00:06:15;101182.03;;;0.03;82.90
55540;BME280;41384;51.418;7.286;2023-01-29T00:08:41;101186.38;;;-0.24;82.66
55540;BME280;41384;51.418;7.286;2023-01-29T00:11:07;101173.13;;;0.20;81.50
55540;BME280;41384;51.418;7.286;2023-01-29T00:13:33;101174.56;;;0.11;81.09
55540;BME280;41384;51.418;7.286;2023-01-29T00:15:59;101187.97;;;0.18;80.89
55540;BME280;41384;51.418;7.286;2023-01-29T00:18:26;101185.88;;;0.10;81.28
55540;BME280;41384;51.418;7.286;2023-01-29T00:20:52;101170.72;;;0.04;80.41
55540;BME280;41384;51.418;7.286;2023-01-29T00:23:17;101170.63;;;0.18;79.97
55540;BME280;41384;51.418;7.286;2023-01-29T00:25:43;101170.19;;;-0.02;81.45
55540;BME280;41384;51.418;7.286;2023-01-29T00:28:08;101168.53;;;-0.03;81.20
55540;BME280;41384;51.418;7.286;2023-01-29T00:30:35;101161.69;;;0.09;81.35
55540;BME280;41384;51.418;7.286;2023-01-29T00:33:00;101160.22;;;0.18;80.80
55540;BME280;41384;51.418;7.286;2023-01-29T00:35:26;101159.00;;;0.24;79.76
55540;BME280;41384;51.418;7.286;2023-01-29T00:37:51;101166.88;;;0.35;79.80
55540;BME280;41384;51.418;7.286;2023-01-29T00:40:16;101166.97;;;-0.05;80.46
55540;BME280;41384;51.418;7.286;2023-01-29T00:42:43;101165.53;;;0.04;80.05
55540;BME280;41384;51.418;7.286;2023-01-29T00:45:27;101164.28;;;0.09;80.50
55540;BME280;41384;51.418;7.286;2023-01-29T00:47:52;101163.22;;;0.38;79.13
55540;BME280;41384;51.418;7.286;2023-01-29T00:50:18;101174.31;;;0.40;79.80
55540;BME280;41384;51.418;7.286;2023-01-29T00:52:43;101159.00;;;0.24;79.65
55540;BME280;41384;51.418;7.286;2023-01-29T00:55:09;101155.66;;;0.22;79.98
55540;BME280;41384;51.418;7.286;2023-01-29T00:57:36;101157.03;;;0.02;80.84
55540;BME280;41384;51.418;7.286;2023-01-29T01:00:05;101154.00;;;-0.05;80.18
55540;BME280;41384;51.418;7.286;2023-01-29T01:02:31;101165.53;;;-0.22;82.33
55540;BME280;41384;51.418;7.286;2023-01-29T01:05:16;101162.00;;;0.05;81.17
55540;BME280;41384;51.418;7.286;2023-01-29T01:07:43;101165.41;;;0.18;80.55
55540;BME280;41384;51.418;7.286;2023-01-29T01:10:13;101167.41;;;0.02;81.40
55540;BME280;41384;51.418;7.286;2023-01-29T01:13:06;101175.16;;;-0.11;82.79
55540;BME280;41384;51.418;7.286;2023-01-29T01:15:34;101176.19;;;-0.27;82.73
55540;BME280;41384;51.418;7.286;2023-01-29T01:18:01;101182.72;;;-0.34;82.72
55540;BME280;41384;51.418;7.286;2023-01-29T01:20:28;101185.72;;;-0.40;83.05
55540;BME280;41384;51.418;7.286;2023-01-29T01:22:54;101173.59;;;-0.40;82.64
55540;BME280;41384;51.418;7.286;2023-01-29T01:25:20;101176.75;;;-0.90;84.30
55540;BME280;41384;51.418;7.286;2023-01-29T01:27:46;101167.03;;;-0.46;84.19
55540;BME280;41384;51.418;7.286;2023-01-29T01:30:13;101169.31;;;-0.81;83.53
55540;BME280;41384;51.418;7.286;2023-01-29T01:32:40;101164.06;;;-0.67;85.47
55540;BME280;41384;51.418;7.286;2023-01-29T01:35:06;101156.47;;;-0.83;86.19
55540;BME280;41384;51.418;7.286;2023-01-29T01:37:32;101146.19;;;-0.31;83.85
55540;BME280;41384;51.418;7.286;2023-01-29T01:39:57;101121.59;;;0.01;81.91
55540;BME280;41384;51.418;7.286;2023-01-29T01:42:29;101122.13;;;-0.20;81.16
55540;BME280;41384;51.418;7.286;2023-01-29T01:44:57;101111.94;;;0.03;80.61
55540;BME280;41384;51.418;7.286;2023-01-29T01:47:29;101128.47;;;-0.24;82.61
55540;BME280;41384;51.418;7.286;2023-01-29T01:50:00;101139.75;;;-0.38;82.98
55540;BME280;41384;51.418;7.286;2023-01-29T01:52:28;101128.63;;;-0.53;84.74
55540;BME280;41384;51.418;7.286;2023-01-29T01:54:55;101130.44;;;-0.41;84.78
55540;BME280;41384;51.418;7.286;2023-01-29T01:57:22;101133.84;;;-0.40;84.10
55540;BME280;41384;51.418;7.286;2023-01-29T01:59:53;101136.84;;;-0.21;83.16
55540;BME280;41384;51.418;7.286;2023-01-29T02:02:20;101142.56;;;-0.41;84.45
55540;BME280;41384;51.418;7.286;2023-01-29T02:05:04;101133.66;;;-0.24;84.72
55540;BME280;41384;51.418;7.286;2023-01-29T02:07:49;101138.22;;;0.11;82.06
55540;BME280;41384;51.418;7.286;2023-01-29T02:10:46;101133.56;;;0.03;81.31
55540;BME280;41384;51.418;7.286;2023-01-29T02:13:13;101139.06;;;-0.27;83.35
55540;BME280;41384;51.418;7.286;2023-01-29T02:15:43;101142.06;;;-0.34;83.85
55540;BME280;41384;51.418;7.286;2023-01-29T02:18:17;101148.59;;;-0.28;85.19
55540;BME280;41384;51.418;7.286;2023-01-29T02:20:53;101141.75;;;-0.16;83.13
55540;BME280;41384;51.418;7.286;2023-01-29T02:23:33;101139.56;;;0.04;82.23
55540;BME280;41384;51.418;7.286;2023-01-29T02:28:53;101149.84;;;-0.34;83.67
55540;BME280;41384;51.418;7.286;2023-01-29T02:31:47;101154.00;;;-0.18;83.01
55540;BME280;41384;51.418;7.286;2023-01-29T02:34:40;101159.59;;;-0.24;82.94
55540;BME280;41384;51.418;7.286;2023-01-29T02:37:54;101161.56;;;-0.28;83.12
55540;BME280;41384;51.418;7.286;2023-01-29T02:40:56;101159.09;;;-0.30;82.79
55540;BME280;41384;51.418;7.286;2023-01-29T02:49:10;101161.59;;;0.11;81.53
55540;BME280;41384;51.418;7.286;2023-01-29T02:51:48;101172.16;;;-0.31;82.11
55540;BME280;41384;51.418;7.286;2023-01-29T02:54:20;101168.53;;;-0.28;83.44
55540;BME280;41384;51.418;7.286;2023-01-29T02:56:57;101153.13;;;-0.45;82.43
55540;BME280;41384;51.418;7.286;2023-01-29T03:00:05;101155.56;;;-0.28;81.76
55540;BME280;41384;51.418;7.286;2023-01-29T03:02:36;101155.25;;;-0.11;83.02
55540;BME280;41384;51.418;7.286;2023-01-29T03:05:07;101158.88;;;-0.26;82.84
55540;BME280;41384;51.418;7.286;2023-01-29T03:07:39;101154.81;;;-0.18;80.84
55540;BME280;41384;51.418;7.286;2023-01-29T03:10:12;101154.53;;;0.13;80.37
55540;BME280;41384;51.418;7.286;2023-01-29T03:12:40;101147.38;;;0.17;79.47
55540;BME280;41384;51.418;7.286;2023-01-29T03:15:11;101157.88;;;0.02;81.11
55540;BME280;41384;51.418;7.286;2023-01-29T03:17:54;101149.22;;;0.02;80.62
55540;BME280;41384;51.418;7.286;2023-01-29T03:20:24;101160.50;;;-0.38;82.59
55540;BME280;41384;51.418;7.286;2023-01-29T03:22:57;101157.75;;;-0.22;82.44
55540;BME280;41384;51.418;7.286;2023-01-29T03:25:27;101147.28;;;0.05;81.64
55540;BME280;41384;51.418;7.286;2023-01-29T03:28:14;101151.19;;;-0.15;81.96
55540;BME280;41384;51.418;7.286;2023-01-29T03:31:02;101148.69;;;-0.30;81.78
55540;BME280;41384;51.418;7.286;2023-01-29T03:34:00;101156.28;;;-0.26;81.45
55540;BME280;41384;51.418;7.286;2023-01-29T03:36:33;101156.06;;;-0.23;82.26
55540;BME280;41384;51.418;7.286;2023-01-29T03:39:07;101148.59;;;-0.02;81.38
55540;BME280;41384;51.418;7.286;2023-01-29T03:41:36;101155.25;;;0.15;79.71
55540;BME280;41384;51.418;7.286;2023-01-29T03:44:13;101153.66;;;0.25;79.52
55540;BME280;41384;51.418;7.286;2023-01-29T03:52:11;101135.28;;;0.28;80.27
55540;BME280;41384;51.418;7.286;2023-01-29T03:54:59;101128.22;;;0.31;79.37
55540;BME280;41384;51.418;7.286;2023-01-29T03:57:36;101114.72;;;0.25;80.30
55540;BME280;41384;51.418;7.286;2023-01-29T04:00:16;101123.34;;;0.13;80.76
55540;BME280;41384;51.418;7.286;2023-01-29T04:03:10;101121.31;;;0.05;81.07
55540;BME280;41384;51.418;7.286;2023-01-29T04:05:48;101125.56;;;0.06;81.70
55540;BME280;41384;51.418;7.286;2023-01-29T04:08:27;101120.38;;;-0.07;80.91
55540;BME280;41384;51.418;7.286;2023-01-29T04:10:58;101122.34;;;0.03;81.90
55540;BME280;41384;51.418;7.286;2023-01-29T04:13:26;101112.06;;;-0.12;81.37
55540;BME280;41384;51.418;7.286;2023-01-29T04:15:59;101110.59;;;0.10;81.80
55540;BME280;41384;51.418;7.286;2023-01-29T04:18:25;101118.50;;;-0.05;81.40
55540;BME280;41384;51.418;7.286;2023-01-29T04:20:51;101116.84;;;0.07;81.84
55540;BME280;41384;51.418;7.286;2023-01-29T04:23:22;101115.38;;;-0.10;82.48
55540;BME280;41384;51.418;7.286;2023-01-29T04:25:55;101104.78;;;-0.07;82.55
55540;BME280;41384;51.418;7.286;2023-01-29T04:31:22;101105.00;;;0.03;81.69
55540;BME280;41384;51.418;7.286;2023-01-29T04:40:07;101087.94;;;0.25;81.02
55540;BME280;41384;51.418;7.286;2023-01-29T04:45:16;101100.75;;;0.02;81.40
55540;BME280;41384;51.418;7.286;2023-01-29T04:48:13;101087.78;;;-0.11;83.40
55540;BME280;41384;51.418;7.286;2023-01-29T04:50:48;101082.53;;;0.15;81.66
55540;BME280;41384;51.418;7.286;2023-01-29T04:53:24;101085.38;;;-0.27;82.55
55540;BME280;41384;51.418;7.286;2023-01-29T04:55:55;101089.22;;;-0.33;83.74
55540;BME280;41384;51.418;7.286;2023-01-29T04:58:49;101083.50;;;0.01;83.14
55540;BME280;41384;51.418;7.286;2023-01-29T05:01:17;101084.31;;;0.02;82.04
55540;BME280;41384;51.418;7.286;2023-01-29T05:03:46;101088.16;;;-0.04;83.71
55540;BME280;41384;51.418;7.286;2023-01-29T05:06:14;101087.53;;;0.18;82.86
55540;BME280;41384;51.418;7.286;2023-01-29T05:08:40;101090.75;;;0.09;81.87
55540;BME280;41384;51.418;7.286;2023-01-29T05:11:06;101082.97;;;0.09;83.42
55540;BME280;41384;51.418;7.286;2023-01-29T05:13:33;101086.22;;;-0.39;84.60
55540;BME280;41384;51.418;7.286;2023-01-29T05:16:08;101065.81;;;0.19;82.39
55540;BME280;41384;51.418;7.286;2023-01-29T05:18:36;101054.47;;;0.20;82.49
55540;BME280;41384;51.418;7.286;2023-01-29T05:21:04;101053.59;;;0.08;82.58
55540;BME280;41384;51.418;7.286;2023-01-29T05:23:30;101052.22;;;0.16;82.55
55540;BME280;41384;51.418;7.286;2023-01-29T05:25:56;101036.81;;;0.25;82.31
55540;BME280;41384;51.418;7.286;2023-01-29T05:28:21;101039.13;;;0.17;81.32
55540;BME280;41384;51.418;7.286;2023-01-29T05:30:49;101039.81;;;0.32;82.13
55540;BME280;41384;51.418;7.286;2023-01-29T05:33:29;101038.91;;;0.20;81.42
55540;BME280;41384;51.418;7.286;2023-01-29T05:35:55;101038.16;;;0.31;80.91
55540;BME280;41384;51.418;7.286;2023-01-29T05:38:22;101037.69;;;0.50;80.50
55540;BME280;41384;51.418;7.286;2023-01-29T05:40:48;101035.31;;;0.47;79.96
55540;BME280;41384;51.418;7.286;2023-01-29T05:43:17;101034.06;;;0.40;80.15
55540;BME280;41384;51.418;7.286;2023-01-29T05:45:43;101043.22;;;0.33;81.62
55540;BME280;41384;51.418;7.286;2023-01-29T05:48:15;101035.59;;;0.18;82.21
55540;BME280;41384;51.418;7.286;2023-01-29T05:50:40;101045.38;;;0.02;83.39
55540;BME280;41384;51.418;7.286;2023-01-29T05:53:05;101041.22;;;0.12;82.55
55540;BME280;41384;51.418;7.286;2023-01-29T05:55:31;101042.78;;;0.39;81.86
55540;BME280;41384;51.418;7.286;2023-01-29T05:57:56;101044.03;;;0.46;82.17
55540;BME280;41384;51.418;7.286;2023-01-29T06:00:22;101047.03;;;0.40;82.18
55540;BME280;41384;51.418;7.286;2023-01-29T06:02:48;101056.34;;;0.18;83.54
55540;BME280;41384;51.418;7.286;2023-01-29T06:05:13;101059.28;;;0.51;82.66
55540;BME280;41384;51.418;7.286;2023-01-29T06:07:38;101066.97;;;0.52;83.46
55540;BME280;41384;51.418;7.286;2023-01-29T06:10:12;101064.84;;;0.33;82.21
55540;BME280;41384;51.418;7.286;2023-01-29T06:12:39;101071.75;;;0.46;82.58
55540;BME280;41384;51.418;7.286;2023-01-29T06:15:04;101083.38;;;0.53;82.18
55540;BME280;41384;51.418;7.286;2023-01-29T06:17:30;101084.72;;;0.58;81.27
55540;BME280;41384;51.418;7.286;2023-01-29T06:19:55;101085.16;;;0.52;82.74
55540;BME280;41384;51.418;7.286;2023-01-29T06:22:20;101079.84;;;0.54;81.35
55540;BME280;41384;51.418;7.286;2023-01-29T06:24:46;101101.56;;;0.03;83.81
55540;BME280;41384;51.418;7.286;2023-01-29T06:27:11;101096.16;;;0.19;83.45
55540;BME280;41384;51.418;7.286;2023-01-29T06:29:36;101098.47;;;0.48;83.27
55540;BME280;41384;51.418;7.286;2023-01-29T06:32:01;101092.84;;;0.41;82.62
55540;BME280;41384;51.418;7.286;2023-01-29T06:34:27;101093.31;;;0.72;81.88
55540;BME280;41384;51.418;7.286;2023-01-29T06:36:52;101095.66;;;0.51;82.97
55540;BME280;41384;51.418;7.286;2023-01-29T06:39:17;101095.66;;;0.51;82.15
55540;BME280;41384;51.418;7.286;2023-01-29T06:41:43;101074.34;;;0.58;81.54
55540;BME280;41384;51.418;7.286;2023-01-29T06:44:09;101067.84;;;0.64;85.82
55540;BME280;41384;51.418;7.286;2023-01-29T06:46:34;101076.28;;;0.68;82.07
55540;BME280;41384;51.418;7.286;2023-01-29T06:49:00;101083.63;;;0.74;82.44
55540;BME280;41384;51.418;7.286;2023-01-29T06:51:25;101083.13;;;0.69;81.38
55540;BME280;41384;51.418;7.286;2023-01-29T06:53:51;101083.06;;;0.57;82.73
55540;BME280;41384;51.418;7.286;2023-01-29T06:56:18;101084.94;;;0.55;81.87
55540;BME280;41384;51.418;7.286;2023-01-29T06:58:44;101087.16;;;0.73;81.38
55540;BME280;41384;51.418;7.286;2023-01-29T07:01:10;101083.00;;;0.70;82.26
55540;BME280;41384;51.418;7.286;2023-01-29T07:03:36;101087.81;;;0.64;82.59
55540;BME280;41384;51.418;7.286;2023-01-29T07:06:02;101082.78;;;0.73;82.22
55540;BME280;41384;51.418;7.286;2023-01-29T07:08:27;101093.97;;;0.63;82.25
55540;BME280;41384;51.418;7.286;2023-01-29T07:10:57;101095.78;;;0.49;82.19
55540;BME280;41384;51.418;7.286;2023-01-29T07:13:24;101098.00;;;0.67;82.51
55540;BME280;41384;51.418;7.286;2023-01-29T07:15:49;101093.66;;;0.79;82.56
55540;BME280;41384;51.418;7.286;2023-01-29T07:18:14;101088.59;;;0.77;82.48
55540;BME280;41384;51.418;7.286;2023-01-29T07:20:40;101088.38;;;0.80;85.53
55540;BME280;41384;51.418;7.286;2023-01-29T07:23:08;101089.31;;;0.42;82.94
55540;BME280;41384;51.418;7.286;2023-01-29T07:25:34;101105.13;;;0.39;84.37
55540;BME280;41384;51.418;7.286;2023-01-29T07:28:00;101106.72;;;0.66;83.26
55540;BME280;41384;51.418;7.286;2023-01-29T07:30:26;101100.53;;;0.55;82.42
55540;BME280;41384;51.418;7.286;2023-01-29T07:32:51;101079.69;;;0.68;83.67
55540;BME280;41384;51.418;7.286;2023-01-29T07:35:16;101070.34;;;0.66;82.90
55540;BME280;41384;51.418;7.286;2023-01-29T07:37:42;101070.63;;;0.74;82.88
55540;BME280;41384;51.418;7.286;2023-01-29T07:40:07;101074.59;;;0.67;83.51
55540;BME280;41384;51.418;7.286;2023-01-29T07:42:37;101085.22;;;0.64;84.14
55540;BME280;41384;51.418;7.286;2023-01-29T07:45:04;101075.31;;;0.69;83.42
55540;BME280;41384;51.418;7.286;2023-01-29T07:47:29;101061.53;;;0.80;84.33
55540;BME280;41384;51.418;7.286;2023-01-29T07:49:55;101070.72;;;0.72;85.30
55540;BME280;41384;51.418;7.286;2023-01-29T07:52:20;101065.59;;;0.60;83.97
55540;BME280;41384;51.418;7.286;2023-01-29T07:54:45;101060.19;;;0.63;84.69
55540;BME280;41384;51.418;7.286;2023-01-29T07:57:10;101058.56;;;0.73;84.93
55540;BME280;41384;51.418;7.286;2023-01-29T07:59:36;101068.56;;;0.91;83.34
55540;BME280;41384;51.418;7.286;2023-01-29T08:02:01;101064.66;;;0.61;85.32
55540;BME280;41384;51.418;7.286;2023-01-29T08:04:26;101055.25;;;0.71;85.48
55540;BME280;41384;51.418;7.286;2023-01-29T08:06:51;101059.75;;;0.69;83.65
55540;BME280;41384;51.418;7.286;2023-01-29T08:09:17;101055.53;;;0.55;83.99
55540;BME280;41384;51.418;7.286;2023-01-29T08:11:42;101064.44;;;0.64;84.36
55540;BME280;41384;51.418;7.286;2023-01-29T08:14:07;101063.91;;;0.83;83.15
55540;BME280;41384;51.418;7.286;2023-01-29T08:16:34;101066.75;;;0.80;83.71
55540;BME280;41384;51.418;7.286;2023-01-29T08:19:00;101056.47;;;0.54;86.40
55540;BME280;41384;51.418;7.286;2023-01-29T08:21:26;101048.47;;;0.44;85.64
55540;BME280;41384;51.418;7.286;2023-01-29T08:23:51;101053.59;;;0.70;86.15
55540;BME280;41384;51.418;7.286;2023-01-29T08:26:16;101050.50;;;0.65;85.06
55540;BME280;41384;51.418;7.286;2023-01-29T08:28:42;101047.09;;;0.76;85.78
55540;BME280;41384;51.418;7.286;2023-01-29T08:31:17;101061.44;;;0.81;84.44
55540;BME280;41384;51.418;7.286;2023-01-29T08:33:44;101053.91;;;0.90;84.64
55540;BME280;41384;51.418;7.286;2023-01-29T08:36:10;101054.59;;;0.80;84.67
55540;BME280;41384;51.418;7.286;2023-01-29T08:38:35;101048.66;;;0.78;84.39
55540;BME280;41384;51.418;7.286;2023-01-29T08:41:00;101048.09;;;0.86;83.92
55540;BME280;41384;51.418;7.286;2023-01-29T08:43:25;101053.41;;;0.84;83.58
55540;BME280;41384;51.418;7.286;2023-01-29T08:45:51;101051.22;;;0.67;86.70
55540;BME280;41384;51.418;7.286;2023-01-29T08:48:16;101049.88;;;0.85;86.70
55540;BME280;41384;51.418;7.286;2023-01-29T08:50:41;101054.38;;;0.83;86.93
55540;BME280;41384;51.418;7.286;2023-01-29T08:53:07;101046.41;;;0.73;86.84
55540;BME280;41384;51.418;7.286;2023-01-29T08:55:37;101047.16;;;0.87;85.21
55540;BME280;41384;51.418;7.286;2023-01-29T08:58:04;101033.50;;;0.96;84.11
55540;BME280;41384;51.418;7.286;2023-01-29T09:00:30;101029.75;;;0.76;83.67
55540;BME280;41384;51.418;7.286;2023-01-29T09:02:56;101029.38;;;1.05;83.59
55540;BME280;41384;51.418;7.286;2023-01-29T09:05:23;101022.06;;;1.10;84.89
55540;BME280;41384;51.418;7.286;2023-01-29T09:07:49;101030.25;;;0.81;83.08
55540;BME280;41384;51.418;7.286;2023-01-29T09:10:14;101033.16;;;1.01;84.75
55540;BME280;41384;51.418;7.286;2023-01-29T09:12:40;101020.97;;;0.90;84.80
55540;BME280;41384;51.418;7.286;2023-01-29T09:15:05;101027.38;;;0.97;84.15
55540;BME280;41384;51.418;7.286;2023-01-29T09:17:31;101013.31;;;1.11;84.77
55540;BME280;41384;51.418;7.286;2023-01-29T09:19:56;101014.97;;;1.12;84.65
55540;BME280;41384;51.418;7.286;2023-01-29T09:22:22;101022.97;;;0.98;85.25
55540;BME280;41384;51.418;7.286;2023-01-29T09:24:48;101017.75;;;0.86;85.85
55540;BME280;41384;51.418;7.286;2023-01-29T09:27:13;101015.84;;;0.89;86.40
55540;BME280;41384;51.418;7.286;2023-01-29T09:29:38;101015.53;;;0.93;86.23
55540;BME280;41384;51.418;7.286;2023-01-29T09:32:04;101009.25;;;0.96;86.33
55540;BME280;41384;51.418;7.286;2023-01-29T09:34:29;101004.22;;;1.06;86.29
55540;BME280;41384;51.418;7.286;2023-01-29T09:36:54;101005.75;;;1.20;86.01
55540;BME280;41384;51.418;7.286;2023-01-29T09:39:20;101000.34;;;1.23;85.67
55540;BME280;41384;51.418;7.286;2023-01-29T09:42:07;101003.19;;;1.31;85.10
55540;BME280;41384;51.418;7.286;2023-01-29T09:47:18;100997.78;;;1.45;85.60
55540;BME280;41384;51.418;7.286;2023-01-29T09:50:11;100994.34;;;1.45;84.74
55540;BME280;41384;51.418;7.286;2023-01-29T09:52:44;100987.31;;;1.23;87.58
55540;BME280;41384;51.418;7.286;2023-01-29T09:55:21;100990.28;;;1.18;85.61
55540;BME280;41384;51.418;7.286;2023-01-29T09:57:52;100998.69;;;1.22;85.78
55540;BME280;41384;51.418;7.286;2023-01-29T10:03:14;100999.75;;;1.19;85.96
55540;BME280;41384;51.418;7.286;2023-01-29T10:06:14;101005.34;;;1.37;84.45
55540;BME280;41384;51.418;7.286;2023-01-29T10:11:54;100997.16;;;1.30;84.92
55540;BME280;41384;51.418;7.286;2023-01-29T10:14:35;101004.50;;;1.25;87.48
55540;BME280;41384;51.418;7.286;2023-01-29T10:17:24;101006.53;;;1.33;86.15
55540;BME280;41384;51.418;7.286;2023-01-29T10:20:18;101004.94;;;1.19;84.80
55540;BME280;41384;51.418;7.286;2023-01-29T10:23:15;101000.97;;;1.38;85.41
55540;BME280;41384;51.418;7.286;2023-01-29T10:25:44;101002.13;;;1.34;84.09
55540;BME280;41384;51.418;7.286;2023-01-29T10:30:48;100996.47;;;1.40;84.18
55540;BME280;41384;51.418;7.286;2023-01-29T10:33:23;100992.91;;;1.52;83.66
55540;BME280;41384;51.418;7.286;2023-01-29T10:35:54;100996.38;;;1.41;83.95
55540;BME280;41384;51.418;7.286;2023-01-29T10:38:42;100983.94;;;1.56;85.34
55540;BME280;41384;51.418;7.286;2023-01-29T10:44:28;100977.63;;;1.25;86.14
55540;BME280;41384;51.418;7.286;2023-01-29T10:47:02;100958.38;;;1.27;84.60
55540;BME280;41384;51.418;7.286;2023-01-29T10:50:04;100955.69;;;1.40;83.85
55540;BME280;41384;51.418;7.286;2023-01-29T10:52:44;100954.69;;;1.30;82.84
55540;BME280;41384;51.418;7.286;2023-01-29T10:57:58;100950.22;;;1.66;82.89
55540;BME280;41384;51.418;7.286;2023-01-29T11:00:29;100956.16;;;1.34;82.14
55540;BME280;41384;51.418;7.286;2023-01-29T11:03:10;100951.88;;;1.56;81.86
55540;BME280;41384;51.418;7.286;2023-01-29T11:05:46;100946.22;;;1.62;80.85
55540;BME280;41384;51.418;7.286;2023-01-29T11:08:19;100944.50;;;1.84;81.15
55540;BME280;41384;51.418;7.286;2023-01-29T11:13:16;100932.19;;;1.97;82.98
55540;BME280;41384;51.418;7.286;2023-01-29T11:15:42;100928.44;;;1.79;80.61
55540;BME280;41384;51.418;7.286;2023-01-29T11:18:10;100927.84;;;1.64;80.61
55540;BME280;41384;51.418;7.286;2023-01-29T11:20:44;100920.13;;;1.85;79.86
55540;BME280;41384;51.418;7.286;2023-01-29T11:23:39;100928.38;;;2.01;80.72
55540;BME280;41384;51.418;7.286;2023-01-29T11:26:04;100927.66;;;1.99;79.91
55540;BME280;41384;51.418;7.286;2023-01-29T11:28:40;100936.47;;;1.87;80.89
55540;BME280;41384;51.418;7.286;2023-01-29T11:31:25;100925.53;;;2.04;81.31
55540;BME280;41384;51.418;7.286;2023-01-29T11:33:53;100930.63;;;2.06;80.94
55540;BME280;41384;51.418;7.286;2023-01-29T11:36:35;100908.91;;;1.84;81.57
55540;BME280;41384;51.418;7.286;2023-01-29T11:39:13;100903.66;;;1.96;81.67
55540;BME280;41384;51.418;7.286;2023-01-29T11:41:46;100905.56;;;1.94;80.59
55540;BME280;41384;51.418;7.286;2023-01-29T11:44:40;100904.06;;;1.80;81.33
55540;BME280;41384;51.418;7.286;2023-01-29T11:47:15;100897.41;;;1.87;81.40
55540;BME280;41384;51.418;7.286;2023-01-29T11:49:53;100888.56;;;1.67;80.40
55540;BME280;41384;51.418;7.286;2023-01-29T11:52:24;100885.22;;;1.76;81.42
55540;BME280;41384;51.418;7.286;2023-01-29T11:54:58;100873.06;;;1.77;81.05
55540;BME280;41384;51.418;7.286;2023-01-29T11:57:30;100863.38;;;1.67;80.45
55540;BME280;41384;51.418;7.286;2023-01-29T12:00:03;100859.94;;;1.78;82.49
55540;BME280;41384;51.418;7.286;2023-01-29T12:02:55;100863.25;;;1.80;81.00
55540;BME280;41384;51.418;7.286;2023-01-29T12:05:24;100850.47;;;1.77;80.14
55540;BME280;41384;51.418;7.286;2023-01-29T12:07:53;100852.28;;;1.98;80.09
55540;BME280;41384;51.418;7.286;2023-01-29T12:10:40;100843.59;;;2.09;81.13
55540;BME280;41384;51.418;7.286;2023-01-29T12:15:34;100840.34;;;1.95;79.94
55540;BME280;41384;51.418;7.286;2023-01-29T12:18:24;100828.91;;;2.08;80.41
55540;BME280;41384;51.418;7.286;2023-01-29T12:20:58;100819.34;;;2.08;80.09
55540;BME280;41384;51.418;7.286;2023-01-29T12:23:46;100802.88;;;2.08;81.12
55540;BME280;41384;51.418;7.286;2023-01-29T12:26:23;100803.13;;;2.04;81.77
55540;BME280;41384;51.418;7.286;2023-01-29T12:29:01;100789.91;;;1.96;81.40
55540;BME280;41384;51.418;7.286;2023-01-29T12:31:53;100777.78;;;1.85;80.73
55540;BME280;41384;51.418;7.286;2023-01-29T12:37:10;100762.78;;;2.20;81.43
55540;BME280;41384;51.418;7.286;2023-01-29T12:39:37;100747.81;;;2.33;79.82
55540;BME280;41384;51.418;7.286;2023-01-29T12:42:14;100743.53;;;2.32;80.11
55540;BME280;41384;51.418;7.286;2023-01-29T12:45:00;100745.56;;;2.08;80.56
55540;BME280;41384;51.418;7.286;2023-01-29T12:47:42;100747.47;;;2.27;79.96
55540;BME280;41384;51.418;7.286;2023-01-29T12:50:26;100735.34;;;2.16;80.12
55540;BME280;41384;51.418;7.286;2023-01-29T12:55:38;100715.34;;;2.47;81.46
55540;BME280;41384;51.418;7.286;2023-01-29T12:58:09;100711.00;;;2.27;78.95
55540;BME280;41384;51.418;7.286;2023-01-29T13:00:39;100712.41;;;2.31;79.24
55540;BME280;41384;51.418;7.286;2023-01-29T13:05:50;100721.34;;;2.17;80.09
55540;BME280;41384;51.418;7.286;2023-01-29T13:08:29;100725.63;;;2.18;80.61
55540;BME280;41384;51.418;7.286;2023-01-29T13:10:57;100709.19;;;2.17;78.59
55540;BME280;41384;51.418;7.286;2023-01-29T13:13:32;100699.25;;;2.32;78.46
55540;BME280;41384;51.418;7.286;2023-01-29T13:15:59;100702.28;;;2.38;78.44
55540;BME280;41384;51.418;7.286;2023-01-29T13:18:47;100696.00;;;2.19;78.71
55540;BME280;41384;51.418;7.286;2023-01-29T13:21:24;100693.00;;;2.45;79.08
55540;BME280;41384;51.418;7.286;2023-01-29T13:23:55;100709.25;;;2.27;78.87
55540;BME280;41384;51.418;7.286;2023-01-29T13:26:21;100714.22;;;2.09;79.00
55540;BME280;41384;51.418;7.286;2023-01-29T13:28:48;100712.28;;;2.32;79.97
55540;BME280;41384;51.418;7.286;2023-01-29T13:33:55;100714.13;;;2.52;77.63
55540;BME280;41384;51.418;7.286;2023-01-29T13:36:26;100719.94;;;2.34;78.63
55540;BME280;41384;51.418;7.286;2023-01-29T13:38:59;100726.25;;;2.31;80.17
55540;BME280;41384;51.418;7.286;2023-01-29T13:41:37;100722.19;;;2.39;80.94
55540;BME280;41384;51.418;7.286;2023-01-29T13:44:05;100722.63;;;2.23;78.60
55540;BME280;41384;51.418;7.286;2023-01-29T13:46:32;100712.56;;;2.39;77.93
55540;BME280;41384;51.418;7.286;2023-01-29T13:48:58;100720.63;;;2.26;77.32
55540;BME280;41384;51.418;7.286;2023-01-29T13:51:33;100715.31;;;2.38;80.60
55540;BME280;41384;51.418;7.286;2023-01-29T13:54:05;100713.66;;;2.37;79.34
55540;BME280;41384;51.418;7.286;2023-01-29T13:59:02;100718.66;;;1.97;79.26
55540;BME280;41384;51.418;7.286;2023-01-29T14:06:45;100721.34;;;2.38;79.20
55540;BME280;41384;51.418;7.286;2023-01-29T14:12:02;100712.66;;;2.07;78.68
55540;BME280;41384;51.418;7.286;2023-01-29T14:17:16;100695.94;;;2.30;78.48
55540;BME280;41384;51.418;7.286;2023-01-29T14:19:50;100691.19;;;2.36;77.63
55540;BME280;41384;51.418;7.286;2023-01-29T14:22:24;100696.13;;;2.39;78.40
55540;BME280;41384;51.418;7.286;2023-01-29T14:25:00;100688.16;;;2.40;78.51
55540;BME280;41384;51.418;7.286;2023-01-29T14:27:26;100694.41;;;2.28;78.98
55540;BME280;41384;51.418;7.286;2023-01-29T14:30:01;100684.06;;;2.38;78.03
55540;BME280;41384;51.418;7.286;2023-01-29T14:32:26;100690.75;;;2.40;80.85